createdAt,value
2019-06-08T00:02:35.587Z,65.78
2019-06-08T00:06:39.959Z,65.72
2019-06-08T00:10:44.301Z,65.69
2019-06-08T00:14:48.631Z,65.76
2019-06-08T00:18:52.926Z,65.81
2019-06-08T00:22:57.420Z,65.96
2019-06-08T00:27:01.719Z,66.09
2019-06-08T00:31:06.312Z,66.08
2019-06-08T00:35:10.858Z,66.08
2019-06-08T00:39:15.370Z,66.03
2019-06-08T00:43:19.796Z,66.17
2019-06-08T00:47:24.683Z,66.21
2019-06-08T00:51:29.788Z,66.32
2019-06-08T00:55:34.320Z,66.44
2019-06-08T00:59:38.625Z,66.75
2019-06-08T01:03:43.213Z,67.05
2019-06-08T01:07:47.519Z,67.08
2019-06-08T01:11:51.899Z,67.30
2019-06-08T01:15:56.195Z,67.44
2019-06-08T01:20:00.630Z,67.32
2019-06-08T01:24:05.057Z,67.38
2019-06-08T01:28:09.413Z,67.41
2019-06-08T01:32:14.212Z,67.46
2019-06-08T01:36:18.813Z,67.48
2019-06-08T01:40:23.346Z,67.48
2019-06-08T01:44:28.081Z,67.53
2019-06-08T01:48:32.554Z,67.58
2019-06-08T01:52:37.333Z,67.73
2019-06-08T01:56:41.684Z,67.80
2019-06-08T02:00:46.242Z,67.95
2019-06-08T02:04:51.065Z,67.99
2019-06-08T02:08:55.378Z,68.19
2019-06-08T02:12:59.706Z,68.25
2019-06-08T02:17:04.004Z,68.31
2019-06-08T02:21:13.380Z,68.40
2019-06-08T02:25:18.502Z,68.39
2019-06-08T02:29:22.808Z,68.68
2019-06-08T02:33:28.271Z,68.70
2019-06-08T02:37:33.218Z,68.89
2019-06-08T02:41:40.081Z,69.16
2019-06-08T02:45:44.520Z,69.25
2019-06-08T02:49:48.937Z,69.20
2019-06-08T02:53:53.252Z,69.17
2019-06-08T02:57:57.725Z,69.45
2019-06-08T03:02:02.940Z,70.05
2019-06-08T03:06:07.779Z,70.24
2019-06-08T03:10:13.255Z,71.39
2019-06-08T03:14:19.864Z,71.56
2019-06-08T03:18:24.224Z,72.38
2019-06-08T03:22:28.552Z,72.39
2019-06-08T03:26:34.277Z,72.04
2019-06-08T03:30:45.539Z,71.23
2019-06-08T03:34:53.899Z,69.83
2019-06-08T03:38:51.007Z,68.48
2019-06-08T03:42:57.186Z,66.62
2019-06-08T03:47:01.461Z,65.58
2019-06-08T03:51:06.637Z,64.61
2019-06-08T03:55:12.441Z,64.51
2019-06-08T03:59:16.966Z,63.31
2019-06-08T04:03:21.287Z,62.89
2019-06-08T04:07:25.810Z,61.68
2019-06-08T04:11:30.128Z,61.06
2019-06-08T04:15:35.420Z,60.54
2019-06-08T04:19:39.933Z,59.25
2019-06-08T04:23:45.397Z,59.75
2019-06-08T04:27:51.148Z,59.59
2019-06-08T04:31:55.827Z,58.94
2019-06-08T04:36:00.182Z,58.06
2019-06-08T04:40:05.079Z,57.57
2019-06-08T04:44:09.479Z,57.13
2019-06-08T04:48:13.796Z,56.65
2019-06-08T04:52:18.139Z,56.20
2019-06-08T04:56:22.524Z,56.39
2019-06-08T05:00:31.187Z,55.99
2019-06-08T05:04:32.972Z,56.41
2019-06-08T05:08:38.938Z,55.82
2019-06-08T05:12:45.390Z,56.01
2019-06-08T05:16:49.873Z,55.73
2019-06-08T05:20:54.390Z,55.00
2019-06-08T05:24:58.950Z,54.94
2019-06-08T05:29:03.334Z,54.43
2019-06-08T05:33:07.842Z,54.62
2019-06-08T05:37:12.170Z,54.52
2019-06-08T05:41:16.528Z,54.38
2019-06-08T05:45:20.872Z,53.87
2019-06-08T05:49:25.199Z,53.09
2019-06-08T05:53:29.667Z,53.10
2019-06-08T05:57:33.984Z,53.55
2019-06-08T06:01:40.367Z,52.88
2019-06-08T06:05:44.805Z,52.12
2019-06-08T06:09:49.125Z,51.75
2019-06-08T06:13:53.648Z,51.90
2019-06-08T06:17:57.941Z,52.08
2019-06-08T06:22:02.269Z,51.52
2019-06-08T06:26:06.799Z,50.59
2019-06-08T06:30:12.717Z,50.65
2019-06-08T06:34:17.272Z,49.90
2019-06-08T06:38:21.643Z,49.00
2019-06-08T06:42:25.973Z,47.81
2019-06-08T06:46:31.119Z,48.75
2019-06-08T06:50:35.458Z,48.07
2019-06-08T06:54:39.940Z,47.35
2019-06-08T06:58:45.068Z,47.56
2019-06-08T07:02:50.044Z,47.30
2019-06-08T07:06:54.570Z,46.97
2019-06-08T07:10:58.873Z,46.90
2019-06-08T07:15:03.192Z,47.22
2019-06-08T07:19:07.509Z,47.02
2019-06-08T07:23:12.026Z,46.01
2019-06-08T07:27:16.340Z,46.14
2019-06-08T07:31:20.684Z,45.75
2019-06-08T07:35:24.970Z,44.67
2019-06-08T07:39:29.342Z,45.35
2019-06-08T07:43:33.692Z,45.52
2019-06-08T07:47:38.015Z,45.34
2019-06-08T07:51:57.795Z,46.23
2019-06-08T07:55:49.967Z,45.40
2019-06-08T07:59:54.661Z,45.84
2019-06-08T08:04:00.424Z,45.93
2019-06-08T08:08:05.018Z,45.74
2019-06-08T08:12:12.196Z,44.49
2019-06-08T08:16:15.395Z,44.94
2019-06-08T08:20:19.698Z,45.32
2019-06-08T08:24:24.010Z,44.75
2019-06-08T08:28:28.455Z,45.43
2019-06-08T08:32:32.784Z,45.69
2019-06-08T08:36:38.105Z,44.40
2019-06-08T08:40:42.951Z,44.07
2019-06-08T08:44:48.620Z,43.94
2019-06-08T08:48:54.244Z,44.33
2019-06-08T08:53:00.628Z,43.68
2019-06-08T08:57:05.319Z,43.19
2019-06-08T09:01:11.072Z,43.04
2019-06-08T09:05:17.985Z,43.27
2019-06-08T09:09:21.837Z,42.80
2019-06-08T09:13:28.155Z,42.81
2019-06-08T09:17:32.278Z,42.96
2019-06-08T09:21:38.379Z,42.70
2019-06-08T09:25:42.835Z,43.21
2019-06-08T09:29:48.222Z,42.66
2019-06-08T09:33:57.124Z,41.75
2019-06-08T09:38:01.098Z,42.93
2019-06-08T09:42:05.352Z,42.78
2019-06-08T09:46:09.903Z,42.98
2019-06-08T09:50:14.525Z,41.71
2019-06-08T09:54:18.987Z,41.85
2019-06-08T09:58:23.637Z,42.21
2019-06-08T10:02:28.423Z,42.04
2019-06-08T10:06:32.858Z,42.41
2019-06-08T10:10:37.195Z,42.15
2019-06-08T10:14:41.521Z,41.47
2019-06-08T10:18:51.178Z,41.73
2019-06-08T10:22:52.140Z,41.53
2019-06-08T10:26:57.199Z,41.12
2019-06-08T10:31:03.403Z,41.77
2019-06-08T10:35:10.421Z,38.01
2019-06-08T10:39:14.884Z,38.04
2019-06-08T10:43:20.058Z,38.59
2019-06-08T10:47:24.840Z,38.27
2019-06-08T10:51:29.261Z,38.42
2019-06-08T10:55:33.588Z,39.03
2019-06-08T10:59:40.336Z,38.60
2019-06-08T11:03:44.142Z,36.98
2019-06-08T11:07:48.479Z,38.81
2019-06-08T11:11:52.841Z,36.11
2019-06-08T11:15:58.662Z,36.00
2019-06-08T11:20:04.814Z,38.57
2019-06-08T11:24:21.615Z,39.62
2019-06-08T11:28:18.428Z,40.51
2019-06-08T11:32:22.591Z,40.95
2019-06-08T11:36:28.168Z,41.05
2019-06-08T11:40:32.614Z,41.64
2019-06-08T11:44:39.022Z,40.42
2019-06-08T11:48:42.941Z,41.01
2019-06-08T11:52:49.299Z,39.79
2019-06-08T11:56:57.376Z,39.00
2019-06-08T12:01:07.199Z,39.46
2019-06-08T12:05:12.928Z,39.06
2019-06-08T12:09:18.923Z,39.49
2019-06-08T12:13:23.842Z,40.10
2019-06-08T12:17:28.588Z,39.74
2019-06-08T12:21:32.909Z,38.57
2019-06-08T12:25:37.869Z,38.26
2019-06-08T12:29:42.304Z,38.77
2019-06-08T12:33:48.757Z,38.96
2019-06-08T12:37:52.828Z,39.17
2019-06-08T12:41:58.309Z,39.23
2019-06-08T12:46:02.812Z,39.31
2019-06-08T12:50:08.892Z,39.28
2019-06-08T12:54:14.273Z,39.10
2019-06-08T12:58:21.796Z,40.04
2019-06-08T13:02:24.965Z,39.80
2019-06-08T13:06:29.670Z,39.49
2019-06-08T13:10:33.992Z,39.22
2019-06-08T13:14:38.646Z,39.38
2019-06-08T13:18:43.181Z,39.39
2019-06-08T13:22:48.322Z,39.36
2019-06-08T13:26:52.661Z,37.93
2019-06-08T13:30:58.175Z,39.53
2019-06-08T13:35:02.717Z,40.44
2019-06-08T13:39:09.894Z,39.83
2019-06-08T13:43:15.280Z,39.33
2019-06-08T13:47:21.829Z,39.91
2019-06-08T13:51:28.154Z,40.25
2019-06-08T13:55:47.749Z,40.32
2019-06-08T13:59:39.078Z,40.21
2019-06-08T14:03:43.879Z,41.16
2019-06-08T14:07:48.658Z,40.15
2019-06-08T14:11:53.010Z,40.12
2019-06-08T14:15:58.563Z,40.26
2019-06-08T14:20:03.085Z,40.30
2019-06-08T14:24:07.806Z,40.28
2019-06-08T14:28:12.185Z,40.19
2019-06-08T14:32:18.892Z,39.90
2019-06-08T14:36:24.290Z,38.94
2019-06-08T14:40:32.685Z,37.96
2019-06-08T14:44:37.906Z,39.30
2019-06-08T14:48:45.095Z,39.97
2019-06-08T14:52:50.271Z,39.10
2019-06-08T14:56:53.808Z,38.39
2019-06-08T15:00:58.115Z,37.73
2019-06-08T15:05:02.677Z,36.87
2019-06-08T15:09:08.616Z,37.48
2019-06-08T15:13:12.994Z,37.69
2019-06-08T15:17:17.282Z,37.99
2019-06-08T15:21:24.138Z,35.46
2019-06-08T15:25:31.144Z,37.18
2019-06-08T15:29:33.855Z,37.15
2019-06-08T15:33:38.500Z,38.75
2019-06-08T15:37:42.814Z,38.24
2019-06-08T15:41:48.840Z,37.22
2019-06-08T15:45:53.225Z,36.77
2019-06-08T15:49:58.780Z,37.26
2019-06-08T15:54:03.285Z,38.08
2019-06-08T15:58:08.940Z,37.89
2019-06-08T16:02:13.638Z,38.55
2019-06-08T16:06:17.948Z,38.69
2019-06-08T16:10:22.340Z,38.22
2019-06-08T16:14:27.017Z,37.82
2019-06-08T16:18:31.726Z,38.23
2019-06-08T16:22:36.682Z,39.00
2019-06-08T16:26:52.972Z,38.09
2019-06-08T16:30:47.444Z,38.56
2019-06-08T16:34:52.002Z,38.81
2019-06-08T16:38:56.430Z,38.90
2019-06-08T16:43:00.770Z,38.23
2019-06-08T16:47:05.213Z,38.88
2019-06-08T16:51:09.517Z,39.33
2019-06-08T16:55:14.007Z,39.63
2019-06-08T16:59:18.325Z,38.71
2019-06-08T17:03:22.680Z,39.23
2019-06-08T17:07:27.508Z,38.75
2019-06-08T17:11:32.010Z,39.23
2019-06-08T17:15:36.391Z,39.43
2019-06-08T17:19:40.748Z,39.17
2019-06-08T17:23:45.072Z,38.91
2019-06-08T17:27:49.483Z,39.48
2019-06-08T17:31:54.238Z,39.60
2019-06-08T17:35:58.548Z,39.62
2019-06-08T17:40:02.996Z,39.96
2019-06-08T17:44:07.560Z,39.60
2019-06-08T17:48:12.093Z,40.60
2019-06-08T17:52:16.634Z,41.00
2019-06-08T17:56:21.056Z,40.94
2019-06-08T18:00:25.461Z,40.92
2019-06-08T18:04:29.821Z,40.67
2019-06-08T18:08:34.123Z,40.88
2019-06-08T18:12:42.559Z,41.13
2019-06-08T18:16:47.820Z,41.20
2019-06-08T18:20:52.296Z,41.54
2019-06-08T18:24:58.189Z,41.92
2019-06-08T18:29:02.721Z,41.92
2019-06-08T18:33:07.423Z,42.07
2019-06-08T18:37:12.530Z,42.44
2019-06-08T18:41:17.726Z,42.54
2019-06-08T18:45:22.495Z,42.64
2019-06-08T18:49:28.840Z,42.69
2019-06-08T18:53:49.127Z,42.84
2019-06-08T18:57:41.042Z,43.09
2019-06-08T19:01:48.691Z,43.08
2019-06-08T19:05:52.519Z,43.06
2019-06-08T19:09:58.964Z,43.16
2019-06-08T19:14:03.491Z,43.29
2019-06-08T19:18:08.316Z,43.23
2019-06-08T19:22:12.711Z,43.41
2019-06-08T19:26:17.598Z,43.47
2019-06-08T19:30:24.326Z,43.78
2019-06-08T19:34:32.187Z,44.15
2019-06-08T19:38:34.219Z,44.18
2019-06-08T19:42:47.385Z,44.38
2019-06-08T19:46:47.559Z,44.45
2019-06-08T19:50:54.082Z,44.59
2019-06-08T19:54:58.141Z,44.71
2019-06-08T19:59:05.122Z,45.01
2019-06-08T20:03:08.752Z,45.24
2019-06-08T20:07:13.181Z,45.66
2019-06-08T20:11:17.711Z,45.91
2019-06-08T20:15:22.219Z,45.92
2019-06-08T20:19:27.950Z,45.90
2019-06-08T20:23:32.576Z,46.00
2019-06-08T20:27:37.334Z,45.91
2019-06-08T20:31:41.801Z,45.89
2019-06-08T20:35:48.113Z,46.17
2019-06-08T20:40:04.279Z,46.29
2019-06-08T20:43:58.478Z,46.45
2019-06-08T20:48:02.950Z,46.73
2019-06-08T20:52:08.590Z,46.92
2019-06-08T20:56:13.590Z,47.75
2019-06-08T21:00:18.081Z,48.16
2019-06-08T21:04:22.853Z,47.64
2019-06-08T21:08:28.198Z,46.83
2019-06-08T21:12:32.679Z,46.69
2019-06-08T21:16:38.255Z,46.64
2019-06-08T21:20:42.741Z,46.66
2019-06-08T21:24:50.482Z,46.82
2019-06-08T21:28:55.554Z,46.70
2019-06-08T21:33:00.902Z,46.63
2019-06-08T21:37:05.535Z,46.50
2019-06-08T21:45:13.097Z,46.13
2019-06-08T21:49:18.223Z,45.52
2019-06-08T21:53:22.904Z,45.37
2019-06-08T21:57:27.737Z,45.41
2019-06-08T22:01:33.558Z,45.33
2019-06-08T22:05:38.228Z,45.36
2019-06-08T22:09:42.645Z,45.40
2019-06-08T22:13:47.694Z,45.57
2019-06-08T22:17:53.110Z,45.44
2019-06-08T22:21:59.786Z,45.54
2019-06-08T22:26:03.731Z,45.67
2019-06-08T22:30:13.435Z,45.83
2019-06-08T22:34:17.344Z,46.66
2019-06-08T22:38:21.056Z,47.77
2019-06-08T22:42:25.559Z,48.32
2019-06-08T22:46:30.050Z,48.75
2019-06-08T22:50:34.376Z,48.84
2019-06-08T22:54:38.881Z,48.88
2019-06-08T22:58:43.337Z,49.11
2019-06-08T23:02:48.570Z,49.48
2019-06-08T23:06:54.848Z,49.24
2019-06-08T23:11:00.886Z,49.35
2019-06-08T23:15:07.715Z,49.35
2019-06-08T23:19:11.621Z,49.21
2019-06-08T23:23:17.842Z,49.42
2019-06-08T23:27:22.351Z,48.90
2019-06-08T23:31:29.106Z,48.80
2019-06-08T23:35:56.691Z,48.76
2019-06-08T23:39:39.468Z,48.81
2019-06-08T23:43:43.772Z,48.86
2019-06-08T23:47:48.308Z,48.84
2019-06-08T23:51:52.605Z,48.91
2019-06-08T23:55:59.490Z,48.71
